Change the Weather History Date:

Saturday, February 16, 2013

  Actual Average (KVLD) Record (KVLD)
Temperature  
Mean Temperature 44 °F 54 °F  
Max Temperature 53 °F 67 °F 70 °F (2014)
Min Temperature 33 °F 42 °F 34 °F (2014)
Degree Days  
Heating Degree Days 21 11  
Month to date heating degree days 197  
Since 1 July heating degree days 1266  
Moisture  
Dew Point 31 °F    
Average Humidity 60    
Maximum Humidity 93    
Minimum Humidity 32    
Precipitation  
Precipitation 0.00 in - 0.00 in (2015)
Sea Level Pressure  
Sea Level Pressure 30.04 in    
Wind  
Wind Speed 7 mph (NW)    
Max Wind Speed 23 mph    
Max Gust Speed 30 mph    
Visibility 10 miles    
Events Rain    
T = Trace of Precipitation, MM = Missing Value Source: NWS Daily Summary

Daily Weather History Graph

Daily Weather History Graph

Search for Another Location

Airport or City:

Trip Planner

Search our weather history database for the weather conditions in past years. The results will help you decide how hot, cold, wet, or windy it might be!

Date:

Astronomy

Feb. 16, 2013 Rise Set
Actual Time 7:15 AM EST 6:24 PM EST
Civil Twilight 6:50 AM EST 6:48 PM EST
Nautical Twilight 6:22 AM EST 7:17 PM EST
Astronomical Twilight 5:54 AM EST 7:45 PM EST
Moon 10:56 AM EST (2/16) No Moon Set
Length of Visible Light 11h 58m
Length of Day
11h 09m
Waxing Crescent, 39% of the Moon is Illuminated
Feb 16
Waxing Crescent
Feb 17
First Quarter
Feb 25
Full
Mar 4
Last Quarter
Mar 11
New

Hourly Weather History & Observations

Time (EST) Temp. Windchill Dew Point Humidity Pressure Visibility Wind Dir Wind Speed Gust Speed Precip Events Conditions
12:15 AM 44.6 °F 42.2 °F 41.0 °F 87% 30.02 in 10.0 mi West 4.6 mph - N/A   Clear
12:35 AM 44.6 °F 42.2 °F 42.8 °F 93% 30.02 in 10.0 mi West 4.6 mph - N/A   Clear
12:55 AM 44.6 °F - 41.0 °F 87% 30.02 in 10.0 mi Calm Calm - N/A   Clear
1:15 AM 48.2 °F - 37.4 °F 66% 30.01 in 10.0 mi Calm Calm - N/A   Clear
1:35 AM 44.6 °F - 41.0 °F 87% 30.01 in 10.0 mi Calm Calm - N/A   Clear
1:55 AM 42.8 °F - 41.0 °F 93% 30.00 in 10.0 mi Calm Calm - N/A   Clear
2:15 AM 44.6 °F 42.2 °F 39.2 °F 81% 29.99 in 10.0 mi West 4.6 mph - N/A   Clear
2:35 AM 44.6 °F 42.2 °F 41.0 °F 87% 29.99 in 10.0 mi West 4.6 mph - N/A   Clear
2:55 AM 46.4 °F 43.5 °F 39.2 °F 76% 29.98 in 10.0 mi West 5.8 mph - N/A   Clear
3:15 AM 46.4 °F 43.5 °F 39.2 °F 76% 29.98 in 10.0 mi WNW 5.8 mph - N/A   Clear
3:55 AM 46.4 °F 44.3 °F 39.2 °F 76% 29.97 in 10.0 mi WNW 4.6 mph - N/A   Clear
4:15 AM 46.4 °F 44.3 °F 39.2 °F 76% 29.97 in 10.0 mi WNW 4.6 mph - N/A   Clear
4:35 AM 46.4 °F 43.5 °F 39.2 °F 76% 29.97 in 10.0 mi NW 5.8 mph - N/A   Clear
4:55 AM 46.4 °F 43.5 °F 39.2 °F 76% 29.97 in 10.0 mi NW 5.8 mph - N/A   Clear
5:15 AM 46.4 °F 43.5 °F 39.2 °F 76% 29.97 in 10.0 mi NW 5.8 mph - N/A   Clear
5:35 AM 44.6 °F 42.2 °F 39.2 °F 81% 29.97 in 10.0 mi NNW 4.6 mph - N/A   Clear
5:55 AM 44.6 °F 41.4 °F 39.2 °F 81% 29.98 in 10.0 mi NNW 5.8 mph - N/A   Clear
6:15 AM 44.6 °F 40.2 °F 37.4 °F 76% 29.98 in 10.0 mi NNW 8.1 mph - N/A   Clear
6:35 AM 44.6 °F 41.4 °F 37.4 °F 76% 29.98 in 10.0 mi NW 5.8 mph - N/A   Clear
6:55 AM 44.6 °F 41.4 °F 37.4 °F 76% 29.99 in 10.0 mi NW 5.8 mph - N/A   Clear
7:15 AM 42.8 °F 40.1 °F 37.4 °F 81% 29.99 in 10.0 mi WNW 4.6 mph - N/A   Clear
7:55 AM 44.6 °F 41.4 °F 39.2 °F 81% 30.01 in 10.0 mi NW 5.8 mph - N/A   Overcast
8:15 AM 44.6 °F 39.7 °F 39.2 °F 81% 30.03 in 10.0 mi NW 9.2 mph - N/A   Mostly Cloudy
8:35 AM 44.6 °F 39.7 °F 37.4 °F 76% 30.03 in 10.0 mi NNW 9.2 mph - N/A   Overcast
8:55 AM 44.6 °F 38.4 °F 37.4 °F 76% 30.04 in 10.0 mi NNW 12.7 mph 17.3 mph N/A   Overcast
9:15 AM 46.4 °F 40.4 °F 37.4 °F 71% 30.06 in 7.0 mi NNW 13.8 mph 23.0 mph N/A   Overcast
9:55 AM 44.6 °F 38.1 °F 39.2 °F 81% 30.08 in 7.0 mi NNW 13.8 mph 17.3 mph N/A Rain Rain
10:15 AM 42.8 °F 37.0 °F 39.2 °F 87% 30.08 in 10.0 mi NW 10.4 mph 20.7 mph N/A   Drizzle
12:35 PM 50.0 °F - 37.4 °F 62% 30.03 in 10.0 mi WNW 9.2 mph 18.4 mph N/A   Mostly Cloudy
1:15 PM 53.6 °F - 35.6 °F 51% 30.00 in 10.0 mi WNW 9.2 mph 16.1 mph N/A   Mostly Cloudy
1:35 PM 53.6 °F - 33.8 °F 47% 29.99 in 10.0 mi WNW 18.4 mph 27.6 mph N/A   Overcast
1:55 PM 50.0 °F - 33.8 °F 54% 30.00 in 10.0 mi NW 13.8 mph 23.0 mph N/A Rain Light Rain
2:15 PM 51.8 °F - 32.0 °F 47% 29.98 in 10.0 mi WNW 15.0 mph 21.9 mph N/A   Mostly Cloudy
2:35 PM 51.8 °F - 32.0 °F 47% 29.99 in 10.0 mi NNW 16.1 mph 20.7 mph N/A   Mostly Cloudy
2:55 PM 50.0 °F - 32.0 °F 50% 29.99 in 7.0 mi NW 17.3 mph 23.0 mph N/A   Overcast
3:15 PM 51.8 °F - 30.2 °F 44% 29.99 in 10.0 mi WNW 11.5 mph 19.6 mph N/A   Overcast
3:35 PM 51.8 °F - 28.4 °F 41% 29.99 in 7.0 mi NNW 13.8 mph 26.5 mph N/A   Overcast
3:55 PM 50.0 °F - 26.6 °F 40% 30.00 in 10.0 mi NW 12.7 mph 21.9 mph N/A   Overcast
4:15 PM 50.0 °F - 26.6 °F 40% 30.01 in 10.0 mi NNW 23.0 mph 29.9 mph N/A   Overcast
4:35 PM 50.0 °F - 24.8 °F 37% 30.02 in 10.0 mi WNW 16.1 mph 24.2 mph N/A   Overcast
4:55 PM 50.0 °F - 24.8 °F 37% 30.02 in 10.0 mi NNW 19.6 mph 23.0 mph N/A   Overcast
5:15 PM 50.0 °F - 21.2 °F 32% 30.03 in 10.0 mi NW 13.8 mph 25.3 mph N/A   Mostly Cloudy
5:35 PM 46.4 °F 40.4 °F 21.2 °F 37% 30.04 in 10.0 mi NW 13.8 mph 23.0 mph N/A   Overcast
5:55 PM 46.4 °F 41.9 °F 23.0 °F 40% 30.05 in 10.0 mi NNW 9.2 mph - N/A   Mostly Cloudy
6:15 PM 44.6 °F 37.2 °F 19.4 °F 37% 30.06 in 10.0 mi NNW 17.3 mph 24.2 mph N/A   Scattered Clouds
6:35 PM 44.6 °F 39.2 °F 19.4 °F 37% 30.07 in 10.0 mi NNW 10.4 mph 17.3 mph N/A   Clear
6:55 PM 44.6 °F 40.2 °F 19.4 °F 37% 30.08 in 10.0 mi NW 8.1 mph 16.1 mph N/A   Clear
7:15 PM 42.8 °F 38.0 °F 17.6 °F 36% 30.09 in 10.0 mi NW 8.1 mph - N/A   Clear
7:35 PM 42.8 °F 38.6 °F 19.4 °F 39% 30.10 in 10.0 mi NW 6.9 mph - N/A   Clear
7:55 PM 41.0 °F 36.4 °F 17.6 °F 39% 30.11 in 10.0 mi NW 6.9 mph - N/A   Clear
8:15 PM 41.0 °F 35.8 °F 17.6 °F 39% 30.12 in 10.0 mi NW 8.1 mph - N/A   Clear
8:55 PM 41.0 °F 37.1 °F 17.6 °F 39% 30.14 in 10.0 mi NW 5.8 mph - N/A   Clear
9:15 PM 39.2 °F 34.2 °F 17.6 °F 42% 30.16 in 10.0 mi NW 6.9 mph - N/A   Clear
9:35 PM 39.2 °F 35.0 °F 17.6 °F 42% 30.17 in 10.0 mi NW 5.8 mph - N/A   Clear
9:55 PM 37.4 °F 32.8 °F 17.6 °F 45% 30.18 in 10.0 mi NW 5.8 mph - N/A   Clear
10:15 PM 37.4 °F 33.8 °F 17.6 °F 45% 30.19 in 10.0 mi NNW 4.6 mph - N/A   Clear
10:35 PM 37.4 °F 32.8 °F 17.6 °F 45% 30.19 in 10.0 mi NW 5.8 mph - N/A   Clear
10:55 PM 37.4 °F 32.8 °F 19.4 °F 48% 30.19 in 10.0 mi NW 5.8 mph - N/A   Clear
11:15 PM 35.6 °F - 19.4 °F 52% 30.20 in 10.0 mi Calm Calm - N/A   Clear
11:35 PM 35.6 °F - 19.4 °F 52% 30.21 in 10.0 mi Calm Calm - N/A   Clear
11:55 PM 33.8 °F 30.8 °F 21.2 °F 60% 30.21 in 10.0 mi West 3.5 mph - N/A   Clear